Terminal Aerodrome Forecast
Issued by NWS Memphis, TN

Home | Current Version | Previous Version | Text Only | Print | Product List | Glossary On
Versions: 1 2 3 4 5 6 7 8 9 10 11 12
874
FTUS44 KMEG 270540
TAFMKL
TAF
KMKL 270540Z 2706/2806 08006KT P6SM VCSH BKN060 BKN100
      TEMPO 2707/2711 5SM -SHRA BKN035
     FM271200 03004KT P6SM VCSH BKN045
     FM271700 04006KT P6SM SCT060
     FM280000 VRB03KT P6SM SKC=

USA.gov is the U.S. government's official web portal to all federal, state and local government web resources and services.